メインページ
METAR-TAF:

METAR-TAF

空港 :

ウアリ・ブーメディアン空港

アルジェ, アルジェリア

緯度: 36-43N, 経度: 003-15E, 海抜: 25m

現時点の気象観測

当レポートは39分前の20:00(UTC)に作成
の風 5kt、北東から南東の間で変化する
気温 26°C
湿度 74%
気圧 1016 hPa
視程10km以上
高度2600ftの雲はほとんどない
高度3000ftの雲はほとんどない, 積乱雲.

METAR: DAAG 172000Z 08005KT 040V130 9999 FEW026 FEW030CB 26/21 Q1016

時間: 21:39 (20:39 UTC)

予報

当レポートは3時間39分前の17:00(UTC)に作成
予報は17日の 18時(UTC)から 18日の 18時(UTC)まで有効
北/北東の風 10kt
視程10km以上
高度2600ftの雲はほとんどない
高度10000ftの雲は散在している
確率 40% :
17日の 18時(UTC)から 17日の 24時(UTC)まで一時的に
高度2300ftの雲はほとんどない, 塔状積雲.
高度2600ftの雲はほとんどない, 積乱雲.
17日の 19時(UTC)から 17日の 22時(UTC)まで徐々に
変向風 2kt
確率 30%
17日の 22時(UTC)から 18日の 07時(UTC)まで
視程: 3000m
高度1300ftの千切れ雲あり
18日の 09時(UTC)から 18日の 12時(UTC)まで徐々に
北東の風 12kt

TAF: DAAG 171700Z 1718/1818 02010KT 9999 FEW026 SCT100 PROB40 TEMPO 1718/1724 FEW023TCU FEW026CB BECMG 1719/1722 VRB02KT PROB30 1722/1807 3000 BR BKN013 BECMG 1809/1812 04012KT

4,000以上の空港の気象観測と天気予報(METAR報とTAF報)

利用可能な観測所は地図上に黄色い丸と赤い丸で示す。

丸の上にカーソルを重ねると観測所名を参照できる。

次にクリックすると気象観測と天気予報を参照できる。

マップの切り替え:黒色「×」印の緑ボタンをクリックして拡大、「-」印の緑ボタンをクリックして縮小、緑色の三角印をクリックして隣りの地図に切り替え


METAR-TAF: